sensor_id;sensor_type;location;lat;lon;timestamp;pressure;altitude;pressure_sealevel;temperature;humidity
13476;BME280;6810;63.824;20.288;2024-03-07T00:02:37;103278.50;;;0.49;77.87
13476;BME280;6810;63.824;20.288;2024-03-07T00:05:24;103278.47;;;0.48;77.72
13476;BME280;6810;63.824;20.288;2024-03-07T00:08:11;103275.81;;;0.46;77.88
13476;BME280;6810;63.824;20.288;2024-03-07T00:10:58;103254.59;;;0.37;77.92
13476;BME280;6810;63.824;20.288;2024-03-07T00:13:45;103254.56;;;0.36;77.79
13476;BME280;6810;63.824;20.288;2024-03-07T00:16:33;103273.06;;;0.42;77.87
13476;BME280;6810;63.824;20.288;2024-03-07T00:19:20;103273.91;;;0.39;77.94
13476;BME280;6810;63.824;20.288;2024-03-07T00:22:07;103265.13;;;0.39;78.00
13476;BME280;6810;63.824;20.288;2024-03-07T00:24:54;103266.84;;;0.37;77.86
13476;BME280;6810;63.824;20.288;2024-03-07T00:27:40;103259.75;;;0.33;77.85
13476;BME280;6810;63.824;20.288;2024-03-07T00:30:28;103229.66;;;0.19;78.17
13476;BME280;6810;63.824;20.288;2024-03-07T00:33:15;103252.75;;;0.32;77.86
13476;BME280;6810;63.824;20.288;2024-03-07T00:36:22;103250.06;;;0.30;77.96
13476;BME280;6810;63.824;20.288;2024-03-07T00:39:09;103246.53;;;0.28;77.79
13476;BME280;6810;63.824;20.288;2024-03-07T00:41:55;103248.25;;;0.28;77.75
13476;BME280;6810;63.824;20.288;2024-03-07T00:44:42;103246.44;;;0.25;77.91
13476;BME280;6810;63.824;20.288;2024-03-07T00:47:29;103237.63;;;0.22;77.94
13476;BME280;6810;63.824;20.288;2024-03-07T00:50:16;103234.13;;;0.21;77.99
13476;BME280;6810;63.824;20.288;2024-03-07T00:53:03;103239.19;;;0.14;77.86
13476;BME280;6810;63.824;20.288;2024-03-07T00:55:50;103235.75;;;0.16;77.81
13476;BME280;6810;63.824;20.288;2024-03-07T00:58:37;103231.34;;;0.15;77.88
13476;BME280;6810;63.824;20.288;2024-03-07T01:01:24;103234.78;;;0.13;77.98
13476;BME280;6810;63.824;20.288;2024-03-07T01:04:11;103230.38;;;0.12;77.84
13476;BME280;6810;63.824;20.288;2024-03-07T01:06:55;103227.72;;;0.10;77.99
13476;BME280;6810;63.824;20.288;2024-03-07T01:09:42;103228.59;;;0.09;77.95
13476;BME280;6810;63.824;20.288;2024-03-07T01:12:29;103225.03;;;0.07;78.02
13476;BME280;6810;63.824;20.288;2024-03-07T01:15:16;103227.69;;;0.09;77.99
13476;BME280;6810;63.824;20.288;2024-03-07T01:18:03;103230.28;;;0.07;78.05
13476;BME280;6810;63.824;20.288;2024-03-07T01:20:50;103233.75;;;0.06;78.08
13476;BME280;6810;63.824;20.288;2024-03-07T01:23:37;103231.13;;;0.06;78.12
13476;BME280;6810;63.824;20.288;2024-03-07T01:26:24;103229.34;;;0.05;78.13
13476;BME280;6810;63.824;20.288;2024-03-07T01:29:11;103224.97;;;0.04;77.92
13476;BME280;6810;63.824;20.288;2024-03-07T01:31:58;103219.69;;;0.03;78.01
13476;BME280;6810;63.824;20.288;2024-03-07T01:34:45;103217.88;;;0.00;78.09
13476;BME280;6810;63.824;20.288;2024-03-07T01:37:32;103217.81;;;-0.02;78.14
13476;BME280;6810;63.824;20.288;2024-03-07T01:40:19;103219.53;;;-0.04;78.11
13476;BME280;6810;63.824;20.288;2024-03-07T01:43:07;103217.72;;;-0.05;77.93
13476;BME280;6810;63.824;20.288;2024-03-07T01:45:55;103208.97;;;-0.07;78.10
13476;BME280;6810;63.824;20.288;2024-03-07T01:48:28;103211.56;;;-0.08;78.08
13476;BME280;6810;63.824;20.288;2024-03-07T01:51:15;103188.50;;;-0.21;78.25
13476;BME280;6810;63.824;20.288;2024-03-07T01:54:02;103204.44;;;-0.12;78.34
13476;BME280;6810;63.824;20.288;2024-03-07T01:56:49;103206.19;;;-0.13;78.19
13476;BME280;6810;63.824;20.288;2024-03-07T01:59:37;103199.13;;;-0.15;78.10
13476;BME280;6810;63.824;20.288;2024-03-07T02:02:24;103201.69;;;-0.17;78.39
13476;BME280;6810;63.824;20.288;2024-03-07T02:05:11;103196.47;;;-0.17;78.18
13476;BME280;6810;63.824;20.288;2024-03-07T02:07:59;103199.03;;;-0.18;78.21
13476;BME280;6810;63.824;20.288;2024-03-07T02:10:46;103193.81;;;-0.18;78.25
13476;BME280;6810;63.824;20.288;2024-03-07T02:13:33;103193.81;;;-0.18;78.42
13476;BME280;6810;63.824;20.288;2024-03-07T02:16:19;103183.13;;;-0.26;78.64
13476;BME280;6810;63.824;20.288;2024-03-07T02:19:07;103190.28;;;-0.20;78.24
13476;BME280;6810;63.824;20.288;2024-03-07T02:21:54;103186.75;;;-0.21;78.47
13476;BME280;6810;63.824;20.288;2024-03-07T02:24:41;103186.75;;;-0.21;78.27
13476;BME280;6810;63.824;20.288;2024-03-07T02:27:28;103185.00;;;-0.22;78.48
13476;BME280;6810;63.824;20.288;2024-03-07T02:30:15;103189.31;;;-0.24;78.24
13476;BME280;6810;63.824;20.288;2024-03-07T02:33:02;103166.25;;;-0.37;78.30
13476;BME280;6810;63.824;20.288;2024-03-07T02:35:49;103186.66;;;-0.25;78.44
13476;BME280;6810;63.824;20.288;2024-03-07T02:38:36;103184.00;;;-0.27;78.24
13476;BME280;6810;63.824;20.288;2024-03-07T02:41:23;103185.72;;;-0.27;78.31
13476;BME280;6810;63.824;20.288;2024-03-07T02:44:10;103182.94;;;-0.33;78.51
13476;BME280;6810;63.824;20.288;2024-03-07T02:46:58;103173.44;;;-0.30;78.67
13476;BME280;6810;63.824;20.288;2024-03-07T02:49:45;103174.28;;;-0.31;78.57
13476;BME280;6810;63.824;20.288;2024-03-07T02:52:32;103175.13;;;-0.32;78.39
13476;BME280;6810;63.824;20.288;2024-03-07T02:55:18;103167.22;;;-0.33;78.67
13476;BME280;6810;63.824;20.288;2024-03-07T02:58:05;103168.00;;;-0.37;78.64
13476;BME280;6810;63.824;20.288;2024-03-07T03:00:33;103172.34;;;-0.38;78.48
13476;BME280;6810;63.824;20.288;2024-03-07T03:03:01;103172.34;;;-0.38;78.26
13476;BME280;6810;63.824;20.288;2024-03-07T03:05:48;103165.28;;;-0.42;78.48
13476;BME280;6810;63.824;20.288;2024-03-07T03:08:35;103168.72;;;-0.43;78.50
13476;BME280;6810;63.824;20.288;2024-03-07T03:11:22;103154.69;;;-0.46;78.22
13476;BME280;6810;63.824;20.288;2024-03-07T03:14:09;103144.00;;;-0.54;78.38
13476;BME280;6810;63.824;20.288;2024-03-07T03:16:56;103160.75;;;-0.47;78.19
13476;BME280;6810;63.824;20.288;2024-03-07T03:19:43;103158.97;;;-0.48;78.30
13476;BME280;6810;63.824;20.288;2024-03-07T03:22:29;103158.91;;;-0.51;78.64
13476;BME280;6810;63.824;20.288;2024-03-07T03:25:36;103158.84;;;-0.53;78.23
13476;BME280;6810;63.824;20.288;2024-03-07T03:28:23;103166.69;;;-0.54;78.38
13476;BME280;6810;63.824;20.288;2024-03-07T03:31:10;103162.25;;;-0.57;78.71
13476;BME280;6810;63.824;20.288;2024-03-07T03:33:57;103159.56;;;-0.60;78.52
13476;BME280;6810;63.824;20.288;2024-03-07T03:36:24;103164.81;;;-0.60;78.81
13476;BME280;6810;63.824;20.288;2024-03-07T03:39:11;103156.00;;;-0.62;78.70
13476;BME280;6810;63.824;20.288;2024-03-07T03:41:58;103158.59;;;-0.63;78.45
13476;BME280;6810;63.824;20.288;2024-03-07T03:44:45;103161.19;;;-0.63;78.61
13476;BME280;6810;63.824;20.288;2024-03-07T03:47:35;103153.28;;;-0.66;78.62
13476;BME280;6810;63.824;20.288;2024-03-07T03:50:23;103150.59;;;-0.68;78.34
13476;BME280;6810;63.824;20.288;2024-03-07T03:53:10;103147.91;;;-0.71;78.74
13476;BME280;6810;63.824;20.288;2024-03-07T03:55:57;103150.50;;;-0.72;78.52
13476;BME280;6810;63.824;20.288;2024-03-07T03:58:44;103146.94;;;-0.74;78.63
13476;BME280;6810;63.824;20.288;2024-03-07T04:01:31;103146.84;;;-0.77;78.47
13476;BME280;6810;63.824;20.288;2024-03-07T04:04:17;103138.06;;;-0.79;78.25
13476;BME280;6810;63.824;20.288;2024-03-07T04:07:04;103138.84;;;-0.83;78.06
13476;BME280;6810;63.824;20.288;2024-03-07T04:09:51;103149.22;;;-0.86;78.37
13476;BME280;6810;63.824;20.288;2024-03-07T04:12:40;103143.00;;;-0.90;78.02
13476;BME280;6810;63.824;20.288;2024-03-07T04:15:27;103137.69;;;-0.93;78.47
13476;BME280;6810;63.824;20.288;2024-03-07T04:18:14;103126.91;;;-1.05;78.25
13476;BME280;6810;63.824;20.288;2024-03-07T04:21:01;103141.88;;;-0.99;78.58
13476;BME280;6810;63.824;20.288;2024-03-07T04:23:48;103093.97;;;-1.28;78.11
13476;BME280;6810;63.824;20.288;2024-03-07T04:26:35;103144.34;;;-1.04;78.20
13476;BME280;6810;63.824;20.288;2024-03-07T04:29:22;103148.69;;;-1.06;78.35
13476;BME280;6810;63.824;20.288;2024-03-07T04:32:09;103147.72;;;-1.09;78.10
13476;BME280;6810;63.824;20.288;2024-03-07T04:34:56;103133.63;;;-1.13;78.26
13476;BME280;6810;63.824;20.288;2024-03-07T04:37:46;103111.25;;;-1.33;78.76
13476;BME280;6810;63.824;20.288;2024-03-07T04:40:33;103143.19;;;-1.15;78.69
13476;BME280;6810;63.824;20.288;2024-03-07T04:43:19;103138.78;;;-1.16;78.65
13476;BME280;6810;63.824;20.288;2024-03-07T04:46:06;103136.00;;;-1.22;78.18
13476;BME280;6810;63.824;20.288;2024-03-07T04:48:53;103142.13;;;-1.21;78.14
13476;BME280;6810;63.824;20.288;2024-03-07T04:51:40;103135.91;;;-1.25;78.20
13476;BME280;6810;63.824;20.288;2024-03-07T04:54:29;103130.63;;;-1.26;77.94
13476;BME280;6810;63.824;20.288;2024-03-07T04:57:16;103139.38;;;-1.26;78.74
13476;BME280;6810;63.824;20.288;2024-03-07T05:00:03;103130.59;;;-1.28;78.05
13476;BME280;6810;63.824;20.288;2024-03-07T05:02:50;103131.38;;;-1.32;78.17
13476;BME280;6810;63.824;20.288;2024-03-07T05:05:37;103131.41;;;-1.30;78.94
13476;BME280;6810;63.824;20.288;2024-03-07T05:08:24;103130.41;;;-1.34;78.60
13476;BME280;6810;63.824;20.288;2024-03-07T05:11:14;103133.00;;;-1.35;78.05
13476;BME280;6810;63.824;20.288;2024-03-07T05:14:02;103125.09;;;-1.37;78.33
13476;BME280;6810;63.824;20.288;2024-03-07T05:16:49;103131.19;;;-1.38;78.63
13476;BME280;6810;63.824;20.288;2024-03-07T05:19:36;103126.78;;;-1.39;78.91
13476;BME280;6810;63.824;20.288;2024-03-07T05:22:23;103127.63;;;-1.40;78.07
13476;BME280;6810;63.824;20.288;2024-03-07T05:25:10;103131.09;;;-1.41;78.63
13476;BME280;6810;63.824;20.288;2024-03-07T05:27:57;103124.03;;;-1.43;78.20
13476;BME280;6810;63.824;20.288;2024-03-07T05:30:44;103115.19;;;-1.48;78.34
13476;BME280;6810;63.824;20.288;2024-03-07T05:33:30;103125.75;;;-1.45;78.76
13476;BME280;6810;63.824;20.288;2024-03-07T05:36:17;103117.75;;;-1.50;78.06
13476;BME280;6810;63.824;20.288;2024-03-07T05:39:04;103130.06;;;-1.46;78.83
13476;BME280;6810;63.824;20.288;2024-03-07T05:41:51;103117.81;;;-1.48;78.03
13476;BME280;6810;63.824;20.288;2024-03-07T05:44:38;103124.75;;;-1.49;78.83
13476;BME280;6810;63.824;20.288;2024-03-07T05:47:25;103126.47;;;-1.49;78.16
13476;BME280;6810;63.824;20.288;2024-03-07T05:50:12;103121.19;;;-1.51;78.99
13476;BME280;6810;63.824;20.288;2024-03-07T05:52:59;103120.25;;;-1.54;78.65
13476;BME280;6810;63.824;20.288;2024-03-07T05:55:46;103119.34;;;-1.55;78.87
13476;BME280;6810;63.824;20.288;2024-03-07T05:58:33;103112.34;;;-1.56;78.34
13476;BME280;6810;63.824;20.288;2024-03-07T06:01:20;103122.78;;;-1.57;78.56
13476;BME280;6810;63.824;20.288;2024-03-07T06:04:07;103120.06;;;-1.60;78.21
13476;BME280;6810;63.824;20.288;2024-03-07T06:06:54;103122.72;;;-1.59;78.07
13476;BME280;6810;63.824;20.288;2024-03-07T06:09:41;103115.72;;;-1.60;78.44
13476;BME280;6810;63.824;20.288;2024-03-07T06:12:28;103117.44;;;-1.60;78.05
13476;BME280;6810;63.824;20.288;2024-03-07T06:15:31;103119.94;;;-1.63;78.01
13476;BME280;6810;63.824;20.288;2024-03-07T06:18:18;103122.59;;;-1.62;78.66
13476;BME280;6810;63.824;20.288;2024-03-07T06:21:05;103126.94;;;-1.64;78.61
13476;BME280;6810;63.824;20.288;2024-03-07T06:23:52;103133.91;;;-1.63;77.94
13476;BME280;6810;63.824;20.288;2024-03-07T06:26:39;103135.69;;;-1.62;78.08
13476;BME280;6810;63.824;20.288;2024-03-07T06:29:32;103135.63;;;-1.63;78.61
13476;BME280;6810;63.824;20.288;2024-03-07T06:32:18;103134.72;;;-1.65;78.10
13476;BME280;6810;63.824;20.288;2024-03-07T06:35:06;103135.59;;;-1.65;78.00
13476;BME280;6810;63.824;20.288;2024-03-07T06:37:53;103135.50;;;-1.68;78.63
13476;BME280;6810;63.824;20.288;2024-03-07T06:40:41;103138.16;;;-1.66;78.38
13476;BME280;6810;63.824;20.288;2024-03-07T06:43:28;103135.44;;;-1.69;77.74
13476;BME280;6810;63.824;20.288;2024-03-07T06:46:15;103128.50;;;-1.69;77.96
13476;BME280;6810;63.824;20.288;2024-03-07T06:49:02;103138.97;;;-1.69;78.34
13476;BME280;6810;63.824;20.288;2024-03-07T06:51:49;103145.91;;;-1.69;78.42
13476;BME280;6810;63.824;20.288;2024-03-07T06:54:36;103142.38;;;-1.71;78.81
13476;BME280;6810;63.824;20.288;2024-03-07T06:57:22;103137.16;;;-1.71;77.84
13476;BME280;6810;63.824;20.288;2024-03-07T07:00:11;103134.50;;;-1.73;78.76
13476;BME280;6810;63.824;20.288;2024-03-07T07:02:58;103131.84;;;-1.74;78.52
13476;BME280;6810;63.824;20.288;2024-03-07T07:05:45;103130.94;;;-1.75;77.65
13476;BME280;6810;63.824;20.288;2024-03-07T07:08:33;103120.38;;;-1.78;78.24
13476;BME280;6810;63.824;20.288;2024-03-07T07:11:20;103122.81;;;-1.84;78.37
13476;BME280;6810;63.824;20.288;2024-03-07T07:14:07;103125.63;;;-1.78;77.68
13476;BME280;6810;63.824;20.288;2024-03-07T07:16:54;103124.75;;;-1.77;77.62
13476;BME280;6810;63.824;20.288;2024-03-07T07:19:41;103125.63;;;-1.78;78.05
13476;BME280;6810;63.824;20.288;2024-03-07T07:22:28;103122.16;;;-1.77;77.91
13476;BME280;6810;63.824;20.288;2024-03-07T07:25:15;103123.03;;;-1.77;77.58
13476;BME280;6810;63.824;20.288;2024-03-07T07:28:02;103112.50;;;-1.80;77.79
13476;BME280;6810;63.824;20.288;2024-03-07T07:30:49;103113.53;;;-1.74;78.27
13476;BME280;6810;63.824;20.288;2024-03-07T07:33:36;103108.25;;;-1.76;77.49
13476;BME280;6810;63.824;20.288;2024-03-07T07:36:23;103117.00;;;-1.74;78.58
13476;BME280;6810;63.824;20.288;2024-03-07T07:38:56;103110.97;;;-1.73;78.04
13476;BME280;6810;63.824;20.288;2024-03-07T07:41:43;103113.59;;;-1.73;78.31
13476;BME280;6810;63.824;20.288;2024-03-07T07:44:30;103096.81;;;-1.80;78.00
13476;BME280;6810;63.824;20.288;2024-03-07T07:47:17;103114.34;;;-1.76;77.51
13476;BME280;6810;63.824;20.288;2024-03-07T07:50:07;103121.44;;;-1.73;77.50
13476;BME280;6810;63.824;20.288;2024-03-07T07:52:55;103118.81;;;-1.73;78.31
13476;BME280;6810;63.824;20.288;2024-03-07T07:55:42;103119.72;;;-1.71;77.93
13476;BME280;6810;63.824;20.288;2024-03-07T07:58:29;103118.00;;;-1.70;77.83
13476;BME280;6810;63.824;20.288;2024-03-07T08:01:17;103119.81;;;-1.68;78.04
13476;BME280;6810;63.824;20.288;2024-03-07T08:04:04;103108.59;;;-1.65;78.32
13476;BME280;6810;63.824;20.288;2024-03-07T08:06:51;103112.00;;;-1.66;77.59
13476;BME280;6810;63.824;20.288;2024-03-07T08:09:38;103109.53;;;-1.62;78.19
13476;BME280;6810;63.824;20.288;2024-03-07T08:12:25;103108.75;;;-1.59;77.60
13476;BME280;6810;63.824;20.288;2024-03-07T08:15:13;103083.13;;;-1.71;77.27
13476;BME280;6810;63.824;20.288;2024-03-07T08:18:03;103117.72;;;-1.51;77.32
13476;BME280;6810;63.824;20.288;2024-03-07T08:20:50;103109.97;;;-1.48;77.48
13476;BME280;6810;63.824;20.288;2024-03-07T08:23:38;103110.88;;;-1.46;77.62
13476;BME280;6810;63.824;20.288;2024-03-07T08:26:25;103120.50;;;-1.45;77.51
13476;BME280;6810;63.824;20.288;2024-03-07T08:29:12;103111.03;;;-1.40;77.49
13476;BME280;6810;63.824;20.288;2024-03-07T08:31:59;103109.41;;;-1.37;77.33
13476;BME280;6810;63.824;20.288;2024-03-07T08:34:46;103106.94;;;-1.32;78.13
13476;BME280;6810;63.824;20.288;2024-03-07T08:37:35;103106.13;;;-1.30;77.97
13476;BME280;6810;63.824;20.288;2024-03-07T08:40:31;103115.75;;;-1.29;77.51
13476;BME280;6810;63.824;20.288;2024-03-07T08:43:18;103109.75;;;-1.25;77.75
13476;BME280;6810;63.824;20.288;2024-03-07T08:46:05;103112.47;;;-1.22;77.94
13476;BME280;6810;63.824;20.288;2024-03-07T08:48:52;103105.63;;;-1.17;77.52
13476;BME280;6810;63.824;20.288;2024-03-07T08:51:39;103106.66;;;-1.12;77.19
13476;BME280;6810;63.824;20.288;2024-03-07T08:54:28;103102.44;;;-1.05;77.28
13476;BME280;6810;63.824;20.288;2024-03-07T08:57:15;103102.63;;;-0.99;77.68
13476;BME280;6810;63.824;20.288;2024-03-07T09:00:05;103107.19;;;-0.92;77.22
13476;BME280;6810;63.824;20.288;2024-03-07T09:02:57;103099.44;;;-0.88;77.53
13476;BME280;6810;63.824;20.288;2024-03-07T09:05:44;103097.88;;;-0.81;77.08
13476;BME280;6810;63.824;20.288;2024-03-07T09:08:31;103098.91;;;-0.75;77.28
13476;BME280;6810;63.824;20.288;2024-03-07T09:11:18;103089.38;;;-0.73;77.51
13476;BME280;6810;63.824;20.288;2024-03-07T09:14:05;103092.25;;;-0.62;77.10
13476;BME280;6810;63.824;20.288;2024-03-07T09:16:52;103091.56;;;-0.57;77.68
13476;BME280;6810;63.824;20.288;2024-03-07T09:19:39;103092.59;;;-0.49;77.01
13476;BME280;6810;63.824;20.288;2024-03-07T09:22:26;103089.19;;;-0.46;77.19
13476;BME280;6810;63.824;20.288;2024-03-07T09:25:13;103085.81;;;-0.41;77.44
13476;BME280;6810;63.824;20.288;2024-03-07T09:28:00;103088.66;;;-0.32;77.27
13476;BME280;6810;63.824;20.288;2024-03-07T09:30:47;103084.44;;;-0.27;77.51
13476;BME280;6810;63.824;20.288;2024-03-07T09:33:34;103095.03;;;-0.21;77.23
13476;BME280;6810;63.824;20.288;2024-03-07T09:36:21;103093.47;;;-0.14;77.55
13476;BME280;6810;63.824;20.288;2024-03-07T09:39:08;103084.88;;;-0.07;77.85
13476;BME280;6810;63.824;20.288;2024-03-07T09:42:08;103082.41;;;-0.01;77.14
13476;BME280;6810;63.824;20.288;2024-03-07T09:44:58;103080.84;;;0.07;77.24
13476;BME280;6810;63.824;20.288;2024-03-07T09:47:50;103075.72;;;0.13;77.44
13476;BME280;6810;63.824;20.288;2024-03-07T09:50:38;103082.88;;;0.20;77.79
13476;BME280;6810;63.824;20.288;2024-03-07T09:53:27;103078.69;;;0.28;77.55
13476;BME280;6810;63.824;20.288;2024-03-07T09:56:17;103067.44;;;0.32;77.24
13476;BME280;6810;63.824;20.288;2024-03-07T09:59:11;103070.28;;;0.43;77.68
13476;BME280;6810;63.824;20.288;2024-03-07T10:01:59;103065.09;;;0.46;77.23
13476;BME280;6810;63.824;20.288;2024-03-07T10:04:51;103063.41;;;0.51;77.47
13476;BME280;6810;63.824;20.288;2024-03-07T10:07:42;103060.06;;;0.56;77.18
13476;BME280;6810;63.824;20.288;2024-03-07T10:10:29;103061.91;;;0.62;77.52
13476;BME280;6810;63.824;20.288;2024-03-07T10:13:16;103063.78;;;0.67;77.29
13476;BME280;6810;63.824;20.288;2024-03-07T10:16:04;103059.50;;;0.74;77.53
13476;BME280;6810;63.824;20.288;2024-03-07T10:18:51;103055.22;;;0.77;77.44
13476;BME280;6810;63.824;20.288;2024-03-07T10:21:41;103058.06;;;0.89;77.16
13476;BME280;6810;63.824;20.288;2024-03-07T10:24:28;103051.22;;;0.97;77.68
13476;BME280;6810;63.824;20.288;2024-03-07T10:27:18;103044.41;;;1.07;77.46
13476;BME280;6810;63.824;20.288;2024-03-07T10:30:05;103045.41;;;1.15;77.68
13476;BME280;6810;63.824;20.288;2024-03-07T10:32:59;103046.41;;;1.23;77.53
13476;BME280;6810;63.824;20.288;2024-03-07T10:35:47;103046.59;;;1.33;77.62
13476;BME280;6810;63.824;20.288;2024-03-07T10:38:34;103043.28;;;1.43;77.26
13476;BME280;6810;63.824;20.288;2024-03-07T10:41:23;103036.44;;;1.56;77.49
13476;BME280;6810;63.824;20.288;2024-03-07T10:44:25;103035.88;;;1.75;78.13
13476;BME280;6810;63.824;20.288;2024-03-07T10:47:17;103037.94;;;1.94;77.98
13476;BME280;6810;63.824;20.288;2024-03-07T10:50:20;103033.91;;;2.23;78.59
13476;BME280;6810;63.824;20.288;2024-03-07T11:02:31;103017.66;;;3.50;77.04
13476;BME280;6810;63.824;20.288;2024-03-07T11:05:21;103016.09;;;3.76;77.11
13476;BME280;6810;63.824;20.288;2024-03-07T11:08:08;103009.28;;;4.14;77.93
13476;BME280;6810;63.824;20.288;2024-03-07T11:10:58;102974.19;;;4.36;77.56
13476;BME280;6810;63.824;20.288;2024-03-07T11:13:46;102976.97;;;4.86;77.00
13476;BME280;6810;63.824;20.288;2024-03-07T11:16:34;102991.06;;;5.39;76.48
13476;BME280;6810;63.824;20.288;2024-03-07T11:19:27;102988.34;;;5.78;76.64
13476;BME280;6810;63.824;20.288;2024-03-07T11:22:30;102981.19;;;6.18;76.18
13476;BME280;6810;63.824;20.288;2024-03-07T11:25:18;102987.22;;;6.48;76.52
13476;BME280;6810;63.824;20.288;2024-03-07T11:28:05;102969.41;;;6.74;76.03
13476;BME280;6810;63.824;20.288;2024-03-07T11:30:52;102970.13;;;7.00;76.13
13476;BME280;6810;63.824;20.288;2024-03-07T11:33:39;102968.16;;;7.24;75.88
13476;BME280;6810;63.824;20.288;2024-03-07T11:36:42;102953.81;;;7.46;75.62
13476;BME280;6810;63.824;20.288;2024-03-07T11:39:46;102960.56;;;7.77;75.18
13476;BME280;6810;63.824;20.288;2024-03-07T11:42:33;102960.28;;;8.02;74.91
13476;BME280;6810;63.824;20.288;2024-03-07T11:45:20;102952.94;;;8.21;74.67
13476;BME280;6810;63.824;20.288;2024-03-07T11:48:13;102966.88;;;8.41;74.14
13476;BME280;6810;63.824;20.288;2024-03-07T11:51:00;102955.09;;;8.60;74.02
13476;BME280;6810;63.824;20.288;2024-03-07T11:53:47;102955.69;;;8.82;73.59
13476;BME280;6810;63.824;20.288;2024-03-07T11:56:34;102943.81;;;9.01;73.65
13476;BME280;6810;63.824;20.288;2024-03-07T11:59:22;102950.63;;;9.20;73.37
13476;BME280;6810;63.824;20.288;2024-03-07T12:02:09;102958.28;;;9.38;73.17
13476;BME280;6810;63.824;20.288;2024-03-07T12:04:56;102942.88;;;9.55;72.16
13476;BME280;6810;63.824;20.288;2024-03-07T12:07:44;102946.16;;;9.70;72.28
13476;BME280;6810;63.824;20.288;2024-03-07T12:10:31;102953.69;;;9.93;71.43
13476;BME280;6810;63.824;20.288;2024-03-07T12:13:18;102934.69;;;10.11;70.51
13476;BME280;6810;63.824;20.288;2024-03-07T12:16:05;102937.81;;;10.31;69.97
13476;BME280;6810;63.824;20.288;2024-03-07T12:18:56;102935.66;;;10.48;69.66
13476;BME280;6810;63.824;20.288;2024-03-07T12:21:43;102943.31;;;10.63;70.40
13476;BME280;6810;63.824;20.288;2024-03-07T12:24:30;102947.38;;;10.78;69.76
13476;BME280;6810;63.824;20.288;2024-03-07T12:27:17;102931.03;;;10.93;70.27
13476;BME280;6810;63.824;20.288;2024-03-07T12:30:15;102938.63;;;11.09;70.37
13476;BME280;6810;63.824;20.288;2024-03-07T12:33:02;102923.31;;;11.16;69.00
13476;BME280;6810;63.824;20.288;2024-03-07T12:35:51;102933.38;;;11.40;69.01
13476;BME280;6810;63.824;20.288;2024-03-07T12:38:38;102944.59;;;11.52;68.31
13476;BME280;6810;63.824;20.288;2024-03-07T12:41:25;102944.31;;;11.64;68.76
13476;BME280;6810;63.824;20.288;2024-03-07T12:44:12;102935.09;;;11.76;68.65
13476;BME280;6810;63.824;20.288;2024-03-07T12:46:59;102933.00;;;11.87;67.59
13476;BME280;6810;63.824;20.288;2024-03-07T12:49:46;102930.03;;;11.97;67.67
13476;BME280;6810;63.824;20.288;2024-03-07T12:52:33;102933.31;;;12.07;67.63
13476;BME280;6810;63.824;20.288;2024-03-07T12:55:20;102929.38;;;12.18;68.12
13476;BME280;6810;63.824;20.288;2024-03-07T12:58:10;102925.56;;;12.27;67.67
13476;BME280;6810;63.824;20.288;2024-03-07T13:01:00;102915.50;;;12.35;67.57
13476;BME280;6810;63.824;20.288;2024-03-07T13:03:48;102921.50;;;12.43;67.74
13476;BME280;6810;63.824;20.288;2024-03-07T13:06:35;102914.97;;;12.53;67.45
13476;BME280;6810;63.824;20.288;2024-03-07T13:09:22;102904.91;;;12.60;67.55
13476;BME280;6810;63.824;20.288;2024-03-07T13:12:09;102902.94;;;12.66;68.28
13476;BME280;6810;63.824;20.288;2024-03-07T13:14:56;102912.50;;;12.73;68.26
13476;BME280;6810;63.824;20.288;2024-03-07T13:17:43;102898.97;;;12.78;67.97
13476;BME280;6810;63.824;20.288;2024-03-07T13:20:31;102897.19;;;12.78;67.97
13476;BME280;6810;63.824;20.288;2024-03-07T13:23:18;102905.09;;;12.81;67.78
13476;BME280;6810;63.824;20.288;2024-03-07T13:26:05;102892.59;;;12.82;67.82
13476;BME280;6810;63.824;20.288;2024-03-07T13:28:53;102891.69;;;12.83;67.27
13476;BME280;6810;63.824;20.288;2024-03-07T13:31:42;102876.75;;;12.76;67.66
13476;BME280;6810;63.824;20.288;2024-03-07T13:34:30;102882.16;;;12.74;67.96
13476;BME280;6810;63.824;20.288;2024-03-07T13:37:17;102883.94;;;12.74;68.15
13476;BME280;6810;63.824;20.288;2024-03-07T13:40:04;102885.88;;;12.69;67.84
13476;BME280;6810;63.824;20.288;2024-03-07T13:42:56;102885.19;;;12.64;67.36
13476;BME280;6810;63.824;20.288;2024-03-07T13:45:43;102888.97;;;12.57;67.38
13476;BME280;6810;63.824;20.288;2024-03-07T13:48:30;102894.59;;;12.48;66.59
13476;BME280;6810;63.824;20.288;2024-03-07T13:51:17;102896.78;;;12.35;66.13
13476;BME280;6810;63.824;20.288;2024-03-07T13:54:04;102884.88;;;12.17;66.16
13476;BME280;6810;63.824;20.288;2024-03-07T13:57:04;102882.59;;;12.04;65.89
13476;BME280;6810;63.824;20.288;2024-03-07T14:00:05;102888.41;;;11.89;65.69
13476;BME280;6810;63.824;20.288;2024-03-07T14:05:55;102883.91;;;11.57;65.49
13476;BME280;6810;63.824;20.288;2024-03-07T14:09:04;102878.16;;;11.40;65.70
13476;BME280;6810;63.824;20.288;2024-03-07T14:25:31;102876.44;;;9.93;63.26
13476;BME280;6810;63.824;20.288;2024-03-07T14:31:26;102874.91;;;9.36;63.70
13476;BME280;6810;63.824;20.288;2024-03-07T14:37:25;102868.88;;;8.76;63.99
13476;BME280;6810;63.824;20.288;2024-03-07T14:40:14;102872.84;;;8.51;64.00
13476;BME280;6810;63.824;20.288;2024-03-07T14:43:03;102870.56;;;8.24;63.48
13476;BME280;6810;63.824;20.288;2024-03-07T14:45:51;102868.31;;;7.94;64.15
13476;BME280;6810;63.824;20.288;2024-03-07T14:48:39;102876.56;;;7.71;63.71
13476;BME280;6810;63.824;20.288;2024-03-07T14:51:26;102868.00;;;7.47;63.97
13476;BME280;6810;63.824;20.288;2024-03-07T15:53:41;102877.03;;;3.39;66.31
13476;BME280;6810;63.824;20.288;2024-03-07T15:56:09;102878.72;;;3.28;67.17
13476;BME280;6810;63.824;20.288;2024-03-07T15:58:36;102865.44;;;3.10;67.00
13476;BME280;6810;63.824;20.288;2024-03-07T16:01:22;102882.97;;;3.09;67.69
13476;BME280;6810;63.824;20.288;2024-03-07T16:04:09;102875.00;;;2.97;67.21
13476;BME280;6810;63.824;20.288;2024-03-07T16:06:56;102875.78;;;2.87;67.21
13476;BME280;6810;63.824;20.288;2024-03-07T16:09:23;102876.63;;;2.83;68.18
13476;BME280;6810;63.824;20.288;2024-03-07T16:11:52;102880.94;;;2.75;67.53